sensor_id;sensor_type;location;lat;lon;timestamp;P1;durP1;ratioP1;P2;durP2;ratioP2
485;SDS011;229;48.734;9.340;2023-02-28T00:02:26;5.55;;;5.25;;
485;SDS011;229;48.734;9.340;2023-02-28T00:04:53;6.22;;;5.78;;
485;SDS011;229;48.734;9.340;2023-02-28T00:07:26;7.13;;;6.72;;
485;SDS011;229;48.734;9.340;2023-02-28T00:09:54;6.43;;;6.05;;
485;SDS011;229;48.734;9.340;2023-02-28T00:12:22;5.95;;;5.65;;
485;SDS011;229;48.734;9.340;2023-02-28T00:14:49;8.10;;;6.65;;
485;SDS011;229;48.734;9.340;2023-02-28T00:17:16;6.65;;;6.25;;
485;SDS011;229;48.734;9.340;2023-02-28T00:19:46;6.40;;;6.03;;
485;SDS011;229;48.734;9.340;2023-02-28T00:22:13;6.07;;;5.78;;
485;SDS011;229;48.734;9.340;2023-02-28T00:24:40;6.60;;;6.20;;
485;SDS011;229;48.734;9.340;2023-02-28T00:27:09;8.23;;;6.47;;
485;SDS011;229;48.734;9.340;2023-02-28T00:29:36;6.57;;;6.20;;
485;SDS011;229;48.734;9.340;2023-02-28T00:32:03;6.70;;;6.30;;
485;SDS011;229;48.734;9.340;2023-02-28T00:34:31;6.05;;;5.75;;
485;SDS011;229;48.734;9.340;2023-02-28T00:37:02;6.47;;;6.07;;
485;SDS011;229;48.734;9.340;2023-02-28T00:39:29;10.45;;;6.63;;
485;SDS011;229;48.734;9.340;2023-02-28T00:41:56;6.80;;;6.40;;
485;SDS011;229;48.734;9.340;2023-02-28T00:44:25;6.35;;;5.97;;
485;SDS011;229;48.734;9.340;2023-02-28T00:46:52;6.43;;;6.03;;
485;SDS011;229;48.734;9.340;2023-02-28T00:49:20;7.43;;;6.13;;
485;SDS011;229;48.734;9.340;2023-02-28T00:51:48;6.00;;;5.70;;
485;SDS011;229;48.734;9.340;2023-02-28T00:54:15;6.55;;;6.05;;
485;SDS011;229;48.734;9.340;2023-02-28T00:56:42;7.50;;;6.18;;
485;SDS011;229;48.734;9.340;2023-02-28T00:59:11;8.05;;;6.55;;
485;SDS011;229;48.734;9.340;2023-02-28T01:01:39;6.50;;;6.10;;
485;SDS011;229;48.734;9.340;2023-02-28T01:04:06;6.28;;;5.85;;
485;SDS011;229;48.734;9.340;2023-02-28T01:06:34;6.70;;;6.30;;
485;SDS011;229;48.734;9.340;2023-02-28T01:09:01;7.60;;;6.70;;
485;SDS011;229;48.734;9.340;2023-02-28T01:11:28;6.55;;;6.10;;
485;SDS011;229;48.734;9.340;2023-02-28T01:13:56;6.03;;;5.75;;
485;SDS011;229;48.734;9.340;2023-02-28T01:16:23;6.07;;;5.75;;
485;SDS011;229;48.734;9.340;2023-02-28T01:18:52;7.63;;;6.35;;
485;SDS011;229;48.734;9.340;2023-02-28T01:21:19;6.40;;;5.88;;
485;SDS011;229;48.734;9.340;2023-02-28T01:23:47;6.60;;;6.20;;
485;SDS011;229;48.734;9.340;2023-02-28T01:26:16;12.75;;;6.10;;
485;SDS011;229;48.734;9.340;2023-02-28T01:28:43;7.80;;;6.50;;
485;SDS011;229;48.734;9.340;2023-02-28T01:31:10;7.20;;;6.10;;
485;SDS011;229;48.734;9.340;2023-02-28T01:33:38;6.65;;;6.25;;
485;SDS011;229;48.734;9.340;2023-02-28T01:36:09;7.50;;;6.20;;
485;SDS011;229;48.734;9.340;2023-02-28T01:38:36;6.75;;;6.20;;
485;SDS011;229;48.734;9.340;2023-02-28T01:41:04;8.00;;;6.72;;
485;SDS011;229;48.734;9.340;2023-02-28T01:43:32;7.82;;;6.70;;
485;SDS011;229;48.734;9.340;2023-02-28T01:45:59;7.18;;;6.70;;
485;SDS011;229;48.734;9.340;2023-02-28T01:48:27;6.72;;;6.38;;
485;SDS011;229;48.734;9.340;2023-02-28T01:50:55;6.28;;;5.93;;
485;SDS011;229;48.734;9.340;2023-02-28T01:53:28;6.63;;;6.22;;
485;SDS011;229;48.734;9.340;2023-02-28T01:55:56;7.28;;;6.45;;
485;SDS011;229;48.734;9.340;2023-02-28T01:58:24;6.60;;;6.20;;
485;SDS011;229;48.734;9.340;2023-02-28T02:00:51;9.75;;;7.05;;
485;SDS011;229;48.734;9.340;2023-02-28T02:03:18;6.82;;;6.43;;
485;SDS011;229;48.734;9.340;2023-02-28T02:05:46;7.10;;;6.70;;
485;SDS011;229;48.734;9.340;2023-02-28T02:08:15;7.32;;;6.85;;
485;SDS011;229;48.734;9.340;2023-02-28T02:10:45;7.57;;;7.18;;
485;SDS011;229;48.734;9.340;2023-02-28T02:13:19;7.57;;;7.00;;
485;SDS011;229;48.734;9.340;2023-02-28T02:15:49;8.55;;;6.47;;
485;SDS011;229;48.734;9.340;2023-02-28T02:18:20;7.43;;;6.90;;
485;SDS011;229;48.734;9.340;2023-02-28T02:23:43;7.47;;;6.93;;
485;SDS011;229;48.734;9.340;2023-02-28T02:26:20;10.05;;;7.43;;
485;SDS011;229;48.734;9.340;2023-02-28T02:29:06;7.45;;;7.03;;
485;SDS011;229;48.734;9.340;2023-02-28T02:31:50;8.15;;;6.82;;
485;SDS011;229;48.734;9.340;2023-02-28T02:34:25;7.85;;;7.47;;
485;SDS011;229;48.734;9.340;2023-02-28T02:36:53;11.32;;;7.50;;
485;SDS011;229;48.734;9.340;2023-02-28T02:39:23;7.47;;;7.07;;
485;SDS011;229;48.734;9.340;2023-02-28T02:41:55;7.50;;;7.10;;
485;SDS011;229;48.734;9.340;2023-02-28T02:44:24;8.68;;;7.50;;
485;SDS011;229;48.734;9.340;2023-02-28T02:46:53;11.23;;;6.82;;
485;SDS011;229;48.734;9.340;2023-02-28T02:49:23;7.90;;;7.50;;
485;SDS011;229;48.734;9.340;2023-02-28T02:51:52;10.65;;;6.90;;
485;SDS011;229;48.734;9.340;2023-02-28T02:54:21;7.55;;;6.90;;
485;SDS011;229;48.734;9.340;2023-02-28T02:56:53;7.90;;;7.30;;
485;SDS011;229;48.734;9.340;2023-02-28T02:59:22;7.05;;;6.65;;
485;SDS011;229;48.734;9.340;2023-02-28T03:01:52;7.45;;;7.05;;
485;SDS011;229;48.734;9.340;2023-02-28T03:04:21;8.40;;;7.68;;
485;SDS011;229;48.734;9.340;2023-02-28T03:06:50;6.28;;;5.57;;
485;SDS011;229;48.734;9.340;2023-02-28T03:09:21;7.22;;;6.82;;
485;SDS011;229;48.734;9.340;2023-02-28T03:11:48;7.10;;;6.70;;
485;SDS011;229;48.734;9.340;2023-02-28T03:14:22;7.28;;;6.88;;
485;SDS011;229;48.734;9.340;2023-02-28T03:19:44;8.23;;;7.60;;
485;SDS011;229;48.734;9.340;2023-02-28T03:22:21;7.65;;;7.07;;
485;SDS011;229;48.734;9.340;2023-02-28T03:24:54;8.02;;;7.20;;
485;SDS011;229;48.734;9.340;2023-02-28T03:27:23;7.47;;;7.13;;
485;SDS011;229;48.734;9.340;2023-02-28T03:29:53;6.95;;;6.55;;
485;SDS011;229;48.734;9.340;2023-02-28T03:32:24;7.47;;;6.80;;
485;SDS011;229;48.734;9.340;2023-02-28T03:34:55;8.52;;;7.82;;
485;SDS011;229;48.734;9.340;2023-02-28T03:37:23;7.85;;;7.18;;
485;SDS011;229;48.734;9.340;2023-02-28T03:39:54;9.38;;;7.47;;
485;SDS011;229;48.734;9.340;2023-02-28T03:42:23;8.52;;;7.20;;
485;SDS011;229;48.734;9.340;2023-02-28T03:44:52;8.27;;;7.18;;
485;SDS011;229;48.734;9.340;2023-02-28T03:47:21;10.07;;;7.60;;
485;SDS011;229;48.734;9.340;2023-02-28T03:49:52;8.90;;;7.65;;
485;SDS011;229;48.734;9.340;2023-02-28T03:52:20;8.15;;;7.75;;
485;SDS011;229;48.734;9.340;2023-02-28T03:54:50;7.97;;;7.57;;
485;SDS011;229;48.734;9.340;2023-02-28T03:57:22;8.32;;;7.40;;
485;SDS011;229;48.734;9.340;2023-02-28T03:59:51;7.68;;;7.25;;
485;SDS011;229;48.734;9.340;2023-02-28T04:02:20;8.02;;;7.63;;
485;SDS011;229;48.734;9.340;2023-02-28T04:04:47;8.20;;;7.75;;
485;SDS011;229;48.734;9.340;2023-02-28T04:07:16;8.13;;;7.72;;
485;SDS011;229;48.734;9.340;2023-02-28T04:09:43;8.35;;;7.32;;
485;SDS011;229;48.734;9.340;2023-02-28T04:12:11;9.52;;;8.02;;
485;SDS011;229;48.734;9.340;2023-02-28T04:14:39;9.35;;;8.52;;
485;SDS011;229;48.734;9.340;2023-02-28T04:17:06;7.45;;;7.07;;
485;SDS011;229;48.734;9.340;2023-02-28T04:19:33;8.00;;;7.60;;
485;SDS011;229;48.734;9.340;2023-02-28T04:22:01;9.48;;;8.40;;
485;SDS011;229;48.734;9.340;2023-02-28T04:24:28;8.43;;;7.95;;
485;SDS011;229;48.734;9.340;2023-02-28T04:26:56;8.43;;;7.97;;
485;SDS011;229;48.734;9.340;2023-02-28T04:29:24;9.05;;;8.35;;
485;SDS011;229;48.734;9.340;2023-02-28T04:31:53;9.10;;;7.78;;
485;SDS011;229;48.734;9.340;2023-02-28T04:34:22;11.93;;;8.32;;
485;SDS011;229;48.734;9.340;2023-02-28T04:36:50;8.80;;;8.23;;
485;SDS011;229;48.734;9.340;2023-02-28T04:39:19;8.75;;;8.25;;
485;SDS011;229;48.734;9.340;2023-02-28T04:41:46;7.72;;;7.35;;
485;SDS011;229;48.734;9.340;2023-02-28T04:44:14;10.43;;;7.60;;
485;SDS011;229;48.734;9.340;2023-02-28T04:46:41;10.95;;;8.65;;
485;SDS011;229;48.734;9.340;2023-02-28T04:49:10;10.75;;;8.52;;
485;SDS011;229;48.734;9.340;2023-02-28T04:51:37;10.57;;;8.50;;
485;SDS011;229;48.734;9.340;2023-02-28T04:54:05;9.77;;;8.30;;
485;SDS011;229;48.734;9.340;2023-02-28T04:56:32;8.90;;;7.68;;
485;SDS011;229;48.734;9.340;2023-02-28T04:58:59;9.68;;;8.82;;
485;SDS011;229;48.734;9.340;2023-02-28T05:01:27;9.57;;;8.75;;
485;SDS011;229;48.734;9.340;2023-02-28T05:03:55;11.45;;;8.60;;
485;SDS011;229;48.734;9.340;2023-02-28T05:06:26;8.50;;;8.00;;
485;SDS011;229;48.734;9.340;2023-02-28T05:08:54;11.70;;;8.95;;
485;SDS011;229;48.734;9.340;2023-02-28T05:11:22;8.77;;;7.95;;
485;SDS011;229;48.734;9.340;2023-02-28T05:13:50;9.60;;;8.23;;
485;SDS011;229;48.734;9.340;2023-02-28T05:16:19;9.10;;;8.55;;
485;SDS011;229;48.734;9.340;2023-02-28T05:18:46;9.65;;;9.18;;
485;SDS011;229;48.734;9.340;2023-02-28T05:21:21;8.68;;;8.18;;
485;SDS011;229;48.734;9.340;2023-02-28T05:23:51;10.35;;;8.77;;
485;SDS011;229;48.734;9.340;2023-02-28T05:26:18;11.20;;;9.35;;
485;SDS011;229;48.734;9.340;2023-02-28T05:28:45;10.40;;;9.02;;
485;SDS011;229;48.734;9.340;2023-02-28T05:31:13;9.93;;;9.00;;
485;SDS011;229;48.734;9.340;2023-02-28T05:33:40;9.20;;;8.45;;
485;SDS011;229;48.734;9.340;2023-02-28T05:36:08;13.35;;;9.02;;
485;SDS011;229;48.734;9.340;2023-02-28T05:38:35;9.60;;;9.13;;
485;SDS011;229;48.734;9.340;2023-02-28T05:41:06;9.63;;;8.85;;
485;SDS011;229;48.734;9.340;2023-02-28T05:43:33;15.50;;;9.40;;
485;SDS011;229;48.734;9.340;2023-02-28T05:46:02;11.27;;;9.35;;
485;SDS011;229;48.734;9.340;2023-02-28T05:48:30;11.60;;;9.38;;
485;SDS011;229;48.734;9.340;2023-02-28T05:50:57;12.02;;;10.20;;
485;SDS011;229;48.734;9.340;2023-02-28T05:53:24;15.35;;;10.48;;
485;SDS011;229;48.734;9.340;2023-02-28T05:55:52;12.18;;;10.65;;
485;SDS011;229;48.734;9.340;2023-02-28T05:58:20;13.25;;;11.55;;
485;SDS011;229;48.734;9.340;2023-02-28T06:00:48;10.75;;;10.15;;
485;SDS011;229;48.734;9.340;2023-02-28T06:03:15;13.10;;;10.88;;
485;SDS011;229;48.734;9.340;2023-02-28T06:05:42;12.52;;;10.93;;
485;SDS011;229;48.734;9.340;2023-02-28T06:08:09;12.93;;;11.68;;
485;SDS011;229;48.734;9.340;2023-02-28T06:10:36;11.60;;;10.90;;
485;SDS011;229;48.734;9.340;2023-02-28T06:13:04;12.68;;;11.35;;
485;SDS011;229;48.734;9.340;2023-02-28T06:15:32;12.50;;;11.55;;
485;SDS011;229;48.734;9.340;2023-02-28T06:18:00;11.95;;;11.35;;
485;SDS011;229;48.734;9.340;2023-02-28T06:20:27;12.55;;;11.07;;
485;SDS011;229;48.734;9.340;2023-02-28T06:22:54;13.02;;;11.20;;
485;SDS011;229;48.734;9.340;2023-02-28T06:25:23;12.82;;;11.38;;
485;SDS011;229;48.734;9.340;2023-02-28T06:27:50;12.68;;;11.75;;
485;SDS011;229;48.734;9.340;2023-02-28T06:30:18;13.38;;;11.93;;
485;SDS011;229;48.734;9.340;2023-02-28T06:32:53;12.95;;;12.25;;
485;SDS011;229;48.734;9.340;2023-02-28T06:35:21;11.52;;;10.93;;
485;SDS011;229;48.734;9.340;2023-02-28T06:37:48;12.18;;;11.63;;
485;SDS011;229;48.734;9.340;2023-02-28T06:40:15;11.18;;;10.52;;
485;SDS011;229;48.734;9.340;2023-02-28T06:42:43;12.65;;;10.85;;
485;SDS011;229;48.734;9.340;2023-02-28T06:45:10;11.90;;;11.30;;
485;SDS011;229;48.734;9.340;2023-02-28T06:47:38;13.02;;;12.35;;
485;SDS011;229;48.734;9.340;2023-02-28T06:50:07;11.70;;;11.10;;
485;SDS011;229;48.734;9.340;2023-02-28T06:52:35;15.52;;;12.13;;
485;SDS011;229;48.734;9.340;2023-02-28T06:55:02;14.13;;;12.50;;
485;SDS011;229;48.734;9.340;2023-02-28T06:57:30;13.38;;;12.32;;
485;SDS011;229;48.734;9.340;2023-02-28T06:59:57;13.88;;;12.57;;
485;SDS011;229;48.734;9.340;2023-02-28T07:02:25;13.13;;;12.50;;
485;SDS011;229;48.734;9.340;2023-02-28T07:04:52;14.02;;;13.13;;
485;SDS011;229;48.734;9.340;2023-02-28T07:07:21;12.57;;;10.82;;
485;SDS011;229;48.734;9.340;2023-02-28T07:09:48;12.27;;;11.70;;
485;SDS011;229;48.734;9.340;2023-02-28T07:12:16;13.98;;;12.50;;
485;SDS011;229;48.734;9.340;2023-02-28T07:14:43;13.77;;;12.13;;
485;SDS011;229;48.734;9.340;2023-02-28T07:17:10;12.93;;;12.25;;
485;SDS011;229;48.734;9.340;2023-02-28T07:19:38;13.70;;;12.18;;
485;SDS011;229;48.734;9.340;2023-02-28T07:22:05;13.18;;;12.10;;
485;SDS011;229;48.734;9.340;2023-02-28T07:24:34;12.85;;;11.57;;
485;SDS011;229;48.734;9.340;2023-02-28T07:27:01;13.80;;;12.00;;
485;SDS011;229;48.734;9.340;2023-02-28T07:29:28;15.27;;;12.20;;
485;SDS011;229;48.734;9.340;2023-02-28T07:31:56;13.02;;;12.32;;
485;SDS011;229;48.734;9.340;2023-02-28T07:34:23;15.45;;;13.23;;
485;SDS011;229;48.734;9.340;2023-02-28T07:36:52;14.00;;;12.85;;
485;SDS011;229;48.734;9.340;2023-02-28T07:39:19;13.32;;;12.63;;
485;SDS011;229;48.734;9.340;2023-02-28T07:41:48;13.25;;;11.68;;
485;SDS011;229;48.734;9.340;2023-02-28T07:44:15;14.48;;;13.18;;
485;SDS011;229;48.734;9.340;2023-02-28T07:46:42;16.05;;;13.43;;
485;SDS011;229;48.734;9.340;2023-02-28T07:49:10;14.52;;;12.75;;
485;SDS011;229;48.734;9.340;2023-02-28T07:51:37;15.10;;;13.68;;
485;SDS011;229;48.734;9.340;2023-02-28T07:54:04;14.00;;;13.30;;
485;SDS011;229;48.734;9.340;2023-02-28T07:56:31;14.85;;;13.35;;
485;SDS011;229;48.734;9.340;2023-02-28T07:59:00;14.43;;;13.73;;
485;SDS011;229;48.734;9.340;2023-02-28T08:01:27;15.48;;;14.68;;
485;SDS011;229;48.734;9.340;2023-02-28T08:03:54;14.60;;;12.48;;
485;SDS011;229;48.734;9.340;2023-02-28T08:06:22;17.13;;;14.43;;
485;SDS011;229;48.734;9.340;2023-02-28T08:08:50;16.52;;;13.57;;
485;SDS011;229;48.734;9.340;2023-02-28T08:11:17;14.63;;;13.35;;
485;SDS011;229;48.734;9.340;2023-02-28T08:13:45;15.02;;;13.60;;
485;SDS011;229;48.734;9.340;2023-02-28T08:16:13;16.50;;;14.93;;
485;SDS011;229;48.734;9.340;2023-02-28T08:18:46;17.75;;;13.68;;
485;SDS011;229;48.734;9.340;2023-02-28T08:21:13;13.23;;;12.45;;
485;SDS011;229;48.734;9.340;2023-02-28T08:23:40;15.07;;;12.80;;
485;SDS011;229;48.734;9.340;2023-02-28T08:26:07;14.80;;;12.80;;
485;SDS011;229;48.734;9.340;2023-02-28T08:28:34;17.42;;;13.48;;
485;SDS011;229;48.734;9.340;2023-02-28T08:31:06;13.23;;;11.57;;
485;SDS011;229;48.734;9.340;2023-02-28T08:33:34;18.92;;;13.25;;
485;SDS011;229;48.734;9.340;2023-02-28T08:36:02;15.63;;;12.90;;
485;SDS011;229;48.734;9.340;2023-02-28T08:38:29;14.23;;;13.32;;
485;SDS011;229;48.734;9.340;2023-02-28T08:40:57;13.32;;;12.63;;
485;SDS011;229;48.734;9.340;2023-02-28T08:43:24;17.58;;;14.10;;
485;SDS011;229;48.734;9.340;2023-02-28T08:45:51;13.20;;;12.50;;
485;SDS011;229;48.734;9.340;2023-02-28T08:48:19;16.40;;;13.25;;
485;SDS011;229;48.734;9.340;2023-02-28T08:50:55;14.77;;;13.38;;
485;SDS011;229;48.734;9.340;2023-02-28T08:53:22;15.85;;;13.70;;
485;SDS011;229;48.734;9.340;2023-02-28T08:55:55;15.77;;;13.88;;
485;SDS011;229;48.734;9.340;2023-02-28T08:58:22;17.98;;;13.93;;
485;SDS011;229;48.734;9.340;2023-02-28T09:00:50;15.38;;;12.93;;
485;SDS011;229;48.734;9.340;2023-02-28T09:03:17;16.17;;;13.25;;
485;SDS011;229;48.734;9.340;2023-02-28T09:05:51;17.38;;;14.38;;
485;SDS011;229;48.734;9.340;2023-02-28T09:08:19;14.10;;;12.93;;
485;SDS011;229;48.734;9.340;2023-02-28T09:10:47;15.68;;;13.63;;
485;SDS011;229;48.734;9.340;2023-02-28T09:13:14;17.38;;;14.75;;
485;SDS011;229;48.734;9.340;2023-02-28T09:15:41;13.65;;;12.95;;
485;SDS011;229;48.734;9.340;2023-02-28T09:18:08;14.50;;;13.82;;
485;SDS011;229;48.734;9.340;2023-02-28T09:20:37;17.20;;;13.98;;
485;SDS011;229;48.734;9.340;2023-02-28T09:23:04;18.80;;;15.25;;
485;SDS011;229;48.734;9.340;2023-02-28T09:25:33;17.20;;;13.38;;
485;SDS011;229;48.734;9.340;2023-02-28T09:28:00;18.13;;;14.40;;
485;SDS011;229;48.734;9.340;2023-02-28T09:30:28;16.20;;;13.65;;
485;SDS011;229;48.734;9.340;2023-02-28T09:32:55;16.25;;;13.70;;
485;SDS011;229;48.734;9.340;2023-02-28T09:35:23;16.15;;;13.25;;
485;SDS011;229;48.734;9.340;2023-02-28T09:37:52;14.30;;;13.38;;
485;SDS011;229;48.734;9.340;2023-02-28T09:40:20;15.15;;;13.35;;
485;SDS011;229;48.734;9.340;2023-02-28T09:42:51;15.65;;;12.65;;
485;SDS011;229;48.734;9.340;2023-02-28T09:45:22;18.48;;;14.05;;
485;SDS011;229;48.734;9.340;2023-02-28T09:47:50;16.30;;;13.73;;
485;SDS011;229;48.734;9.340;2023-02-28T09:50:21;16.33;;;13.45;;
485;SDS011;229;48.734;9.340;2023-02-28T09:52:50;14.32;;;13.02;;
485;SDS011;229;48.734;9.340;2023-02-28T09:55:19;13.77;;;12.68;;
485;SDS011;229;48.734;9.340;2023-02-28T09:57:47;14.48;;;12.98;;
485;SDS011;229;48.734;9.340;2023-02-28T10:00:18;16.35;;;13.40;;
485;SDS011;229;48.734;9.340;2023-02-28T10:02:49;15.55;;;13.73;;
485;SDS011;229;48.734;9.340;2023-02-28T10:05:20;14.70;;;12.40;;
485;SDS011;229;48.734;9.340;2023-02-28T10:07:51;16.98;;;13.00;;
485;SDS011;229;48.734;9.340;2023-02-28T10:10:22;18.92;;;13.10;;
485;SDS011;229;48.734;9.340;2023-02-28T10:12:51;17.90;;;12.20;;
485;SDS011;229;48.734;9.340;2023-02-28T10:15:21;17.67;;;14.65;;
485;SDS011;229;48.734;9.340;2023-02-28T10:17:48;13.38;;;12.45;;
485;SDS011;229;48.734;9.340;2023-02-28T10:20:19;17.00;;;12.98;;
485;SDS011;229;48.734;9.340;2023-02-28T10:22:51;14.80;;;12.65;;
485;SDS011;229;48.734;9.340;2023-02-28T10:25:20;13.30;;;12.60;;
485;SDS011;229;48.734;9.340;2023-02-28T10:27:48;15.32;;;14.50;;
485;SDS011;229;48.734;9.340;2023-02-28T10:30:16;16.35;;;12.48;;
485;SDS011;229;48.734;9.340;2023-02-28T10:32:47;17.48;;;13.20;;
485;SDS011;229;48.734;9.340;2023-02-28T10:35:16;13.40;;;12.77;;
485;SDS011;229;48.734;9.340;2023-02-28T10:37:45;15.82;;;13.77;;
485;SDS011;229;48.734;9.340;2023-02-28T10:40:25;15.00;;;12.60;;
485;SDS011;229;48.734;9.340;2023-02-28T10:42:54;15.90;;;13.13;;
485;SDS011;229;48.734;9.340;2023-02-28T10:45:22;14.65;;;12.73;;
485;SDS011;229;48.734;9.340;2023-02-28T10:47:53;15.10;;;13.45;;
485;SDS011;229;48.734;9.340;2023-02-28T10:50:28;15.65;;;13.77;;
485;SDS011;229;48.734;9.340;2023-02-28T10:52:57;15.15;;;13.55;;
485;SDS011;229;48.734;9.340;2023-02-28T10:55:31;13.95;;;12.68;;
485;SDS011;229;48.734;9.340;2023-02-28T10:57:59;16.42;;;12.60;;
485;SDS011;229;48.734;9.340;2023-02-28T11:00:31;13.55;;;12.32;;
485;SDS011;229;48.734;9.340;2023-02-28T11:03:00;15.18;;;11.75;;
485;SDS011;229;48.734;9.340;2023-02-28T11:05:28;16.73;;;12.63;;
485;SDS011;229;48.734;9.340;2023-02-28T11:07:56;15.20;;;12.20;;
485;SDS011;229;48.734;9.340;2023-02-28T11:10:26;16.55;;;12.82;;
485;SDS011;229;48.734;9.340;2023-02-28T11:12:55;15.32;;;12.15;;
485;SDS011;229;48.734;9.340;2023-02-28T11:15:24;14.18;;;12.25;;
485;SDS011;229;48.734;9.340;2023-02-28T11:17:55;13.25;;;11.52;;
485;SDS011;229;48.734;9.340;2023-02-28T11:20:25;16.83;;;12.35;;
485;SDS011;229;48.734;9.340;2023-02-28T11:22:53;13.23;;;11.68;;
485;SDS011;229;48.734;9.340;2023-02-28T11:25:21;13.77;;;11.80;;
485;SDS011;229;48.734;9.340;2023-02-28T11:27:50;13.18;;;11.70;;
485;SDS011;229;48.734;9.340;2023-02-28T11:30:25;11.82;;;11.23;;
485;SDS011;229;48.734;9.340;2023-02-28T11:32:52;11.60;;;11.00;;
485;SDS011;229;48.734;9.340;2023-02-28T11:35:21;13.95;;;11.75;;
485;SDS011;229;48.734;9.340;2023-02-28T11:37:51;12.50;;;11.02;;
485;SDS011;229;48.734;9.340;2023-02-28T11:40:20;13.68;;;11.95;;
485;SDS011;229;48.734;9.340;2023-02-28T11:42:54;12.15;;;10.85;;
485;SDS011;229;48.734;9.340;2023-02-28T11:45:29;15.10;;;11.38;;
485;SDS011;229;48.734;9.340;2023-02-28T11:48:04;13.25;;;12.02;;
485;SDS011;229;48.734;9.340;2023-02-28T11:50:45;15.70;;;12.75;;
485;SDS011;229;48.734;9.340;2023-02-28T11:53:19;13.65;;;11.13;;
485;SDS011;229;48.734;9.340;2023-02-28T11:55:49;12.52;;;10.82;;
485;SDS011;229;48.734;9.340;2023-02-28T11:58:26;14.38;;;11.98;;
485;SDS011;229;48.734;9.340;2023-02-28T12:01:00;13.75;;;12.27;;
485;SDS011;229;48.734;9.340;2023-02-28T12:03:31;11.90;;;11.20;;
485;SDS011;229;48.734;9.340;2023-02-28T12:06:02;13.05;;;12.35;;
485;SDS011;229;48.734;9.340;2023-02-28T12:08:41;15.05;;;12.13;;
485;SDS011;229;48.734;9.340;2023-02-28T12:11:11;13.93;;;11.80;;
485;SDS011;229;48.734;9.340;2023-02-28T12:13:43;14.00;;;11.75;;
485;SDS011;229;48.734;9.340;2023-02-28T12:16:18;13.80;;;12.00;;
485;SDS011;229;48.734;9.340;2023-02-28T12:18:53;15.75;;;12.90;;
485;SDS011;229;48.734;9.340;2023-02-28T12:21:26;14.75;;;12.25;;
485;SDS011;229;48.734;9.340;2023-02-28T12:24:00;12.40;;;11.85;;
485;SDS011;229;48.734;9.340;2023-02-28T12:26:32;18.83;;;16.30;;
485;SDS011;229;48.734;9.340;2023-02-28T12:29:02;20.40;;;16.30;;
485;SDS011;229;48.734;9.340;2023-02-28T12:31:33;15.45;;;12.30;;
485;SDS011;229;48.734;9.340;2023-02-28T12:34:03;12.98;;;12.32;;
485;SDS011;229;48.734;9.340;2023-02-28T12:36:31;15.38;;;12.40;;
485;SDS011;229;48.734;9.340;2023-02-28T12:39:02;15.50;;;12.90;;
485;SDS011;229;48.734;9.340;2023-02-28T12:41:34;13.75;;;12.65;;
485;SDS011;229;48.734;9.340;2023-02-28T12:44:05;14.48;;;12.65;;
485;SDS011;229;48.734;9.340;2023-02-28T12:46:37;13.50;;;12.82;;
485;SDS011;229;48.734;9.340;2023-02-28T12:49:06;14.55;;;13.00;;
485;SDS011;229;48.734;9.340;2023-02-28T12:51:35;14.35;;;12.73;;
485;SDS011;229;48.734;9.340;2023-02-28T12:54:07;12.55;;;11.65;;
485;SDS011;229;48.734;9.340;2023-02-28T12:56:37;13.02;;;12.35;;
485;SDS011;229;48.734;9.340;2023-02-28T12:59:09;14.68;;;12.73;;
485;SDS011;229;48.734;9.340;2023-02-28T13:07:14;18.17;;;12.60;;
485;SDS011;229;48.734;9.340;2023-02-28T13:09:52;13.60;;;12.02;;
485;SDS011;229;48.734;9.340;2023-02-28T13:12:20;14.25;;;13.13;;
485;SDS011;229;48.734;9.340;2023-02-28T13:14:48;17.65;;;12.52;;
485;SDS011;229;48.734;9.340;2023-02-28T13:17:17;15.23;;;12.23;;
485;SDS011;229;48.734;9.340;2023-02-28T13:19:46;14.85;;;12.98;;
485;SDS011;229;48.734;9.340;2023-02-28T13:22:36;16.27;;;12.65;;
485;SDS011;229;48.734;9.340;2023-02-28T13:25:13;14.82;;;13.05;;
485;SDS011;229;48.734;9.340;2023-02-28T13:27:59;15.23;;;13.13;;
485;SDS011;229;48.734;9.340;2023-02-28T13:33:20;15.38;;;13.15;;
485;SDS011;229;48.734;9.340;2023-02-28T13:35:48;14.63;;;12.77;;
485;SDS011;229;48.734;9.340;2023-02-28T13:38:32;14.88;;;12.85;;
485;SDS011;229;48.734;9.340;2023-02-28T13:44:00;15.18;;;12.73;;
485;SDS011;229;48.734;9.340;2023-02-28T13:46:28;15.73;;;13.65;;
485;SDS011;229;48.734;9.340;2023-02-28T13:48:55;13.50;;;12.90;;
485;SDS011;229;48.734;9.340;2023-02-28T13:54:13;14.85;;;11.65;;
485;SDS011;229;48.734;9.340;2023-02-28T13:56:44;14.05;;;13.10;;
485;SDS011;229;48.734;9.340;2023-02-28T13:59:18;14.95;;;12.73;;
485;SDS011;229;48.734;9.340;2023-02-28T14:01:51;13.55;;;11.35;;
485;SDS011;229;48.734;9.340;2023-02-28T14:07:20;14.75;;;11.50;;
485;SDS011;229;48.734;9.340;2023-02-28T14:09:50;12.50;;;11.60;;
485;SDS011;229;48.734;9.340;2023-02-28T14:15:23;13.18;;;11.70;;
485;SDS011;229;48.734;9.340;2023-02-28T14:17:51;13.52;;;12.82;;
485;SDS011;229;48.734;9.340;2023-02-28T14:20:19;15.75;;;11.40;;
485;SDS011;229;48.734;9.340;2023-02-28T14:22:50;13.20;;;11.60;;
485;SDS011;229;48.734;9.340;2023-02-28T14:25:21;13.88;;;12.40;;
485;SDS011;229;48.734;9.340;2023-02-28T14:27:53;13.52;;;12.50;;
485;SDS011;229;48.734;9.340;2023-02-28T14:30:40;13.95;;;11.88;;
485;SDS011;229;48.734;9.340;2023-02-28T14:36:01;14.70;;;12.65;;
485;SDS011;229;48.734;9.340;2023-02-28T14:38:31;15.50;;;12.93;;
485;SDS011;229;48.734;9.340;2023-02-28T14:41:00;14.60;;;13.23;;
485;SDS011;229;48.734;9.340;2023-02-28T14:43:28;14.27;;;12.82;;
485;SDS011;229;48.734;9.340;2023-02-28T14:45:58;13.52;;;12.82;;
485;SDS011;229;48.734;9.340;2023-02-28T14:48:26;14.50;;;12.82;;
485;SDS011;229;48.734;9.340;2023-02-28T14:50:54;13.52;;;12.73;;
485;SDS011;229;48.734;9.340;2023-02-28T14:53:22;14.15;;;13.23;;
485;SDS011;229;48.734;9.340;2023-02-28T14:55:49;12.38;;;11.85;;
485;SDS011;229;48.734;9.340;2023-02-28T14:58:24;14.13;;;12.75;;
485;SDS011;229;48.734;9.340;2023-02-28T15:00:52;15.13;;;13.55;;
485;SDS011;229;48.734;9.340;2023-02-28T15:03:22;14.55;;;12.13;;
485;SDS011;229;48.734;9.340;2023-02-28T15:05:52;13.40;;;11.85;;
485;SDS011;229;48.734;9.340;2023-02-28T15:08:21;14.98;;;13.40;;
485;SDS011;229;48.734;9.340;2023-02-28T15:10:51;12.80;;;11.70;;
485;SDS011;229;48.734;9.340;2023-02-28T15:13:20;15.05;;;13.20;;
485;SDS011;229;48.734;9.340;2023-02-28T15:15:49;13.27;;;12.13;;
485;SDS011;229;48.734;9.340;2023-02-28T15:18:23;15.88;;;12.93;;
485;SDS011;229;48.734;9.340;2023-02-28T15:20:55;16.23;;;12.65;;
485;SDS011;229;48.734;9.340;2023-02-28T15:23:22;14.13;;;12.77;;
485;SDS011;229;48.734;9.340;2023-02-28T15:25:50;13.85;;;12.50;;
485;SDS011;229;48.734;9.340;2023-02-28T15:28:18;15.38;;;13.15;;
485;SDS011;229;48.734;9.340;2023-02-28T15:30:53;16.10;;;12.93;;
485;SDS011;229;48.734;9.340;2023-02-28T15:33:23;13.57;;;12.65;;
485;SDS011;229;48.734;9.340;2023-02-28T15:35:50;16.13;;;13.35;;
485;SDS011;229;48.734;9.340;2023-02-28T15:38:18;14.95;;;13.40;;
485;SDS011;229;48.734;9.340;2023-02-28T15:40:50;14.95;;;12.40;;
485;SDS011;229;48.734;9.340;2023-02-28T15:43:23;15.02;;;13.30;;
485;SDS011;229;48.734;9.340;2023-02-28T15:45:51;14.32;;;12.75;;
485;SDS011;229;48.734;9.340;2023-02-28T15:48:19;15.07;;;13.18;;
485;SDS011;229;48.734;9.340;2023-02-28T15:50:49;17.02;;;13.57;;
485;SDS011;229;48.734;9.340;2023-02-28T15:53:17;13.77;;;13.07;;
485;SDS011;229;48.734;9.340;2023-02-28T15:55:51;15.98;;;12.95;;
485;SDS011;229;48.734;9.340;2023-02-28T15:58:18;16.98;;;13.70;;
485;SDS011;229;48.734;9.340;2023-02-28T16:00:59;14.48;;;12.38;;
485;SDS011;229;48.734;9.340;2023-02-28T16:03:27;13.68;;;12.45;;
485;SDS011;229;48.734;9.340;2023-02-28T16:06:21;17.98;;;13.25;;
485;SDS011;229;48.734;9.340;2023-02-28T16:08:50;16.25;;;13.50;;